PWSweather.com
Personal Weather Stations
Station Observations
REUBENS
Camas Prairie, Reubens, ID

Camas PrairieReubens, ID

Lat: 46.35417, Lon: -116.53167

Elevation: 3480

Station Type: Davis VantagePro 2

http://www.theobrienranch.com/wx/wx.htm

Latest ConditionsUpdated 11:30:01 AM PDT Saturday, Aug 29, 2015
Currently Today's Max Today's Min Today's Average
Temperature 77.0°F25.0°C 83.9°F28.8°C 66.2°F19.0°C 71.4°F21.9°C
Dew Point 44.9°F7.2°C 44.9°F7.2°C 40.8°F4.9°C 43.0°F6.1°C
Winds 12.4 mph W20.0 kmh W 18.2 mph SW29.3 kmh SW - 9.0 mph 14.5 kmh
Wind Gusts 20.0 mph32.2 kmh 32.0 mph51.5 kmh - -
Humidity 32% 45% 23% 37%
Pressure 29.60 in1002.4 mb 29.70 in1005.8 mb 29.55 in1000.7 mb -
Hour Temp Dew Point Humidity Winds Wind Gusts Pressure Precip Precip Rate Daily Precip Total
11:30 AM 77.0°F25.0°C 44.9°F7.2°C 32% 12.4 mph W20.0 kmh W 20.0 mph32.2 kmh 29.60 in1002.4 mb - 0.00 in0.0 mm 0.00 in0.0 mm
11:00 AM 83.9°F28.8°C 44.3°F6.8°C 25% 17.8 mph W28.6 kmh W 30.0 mph48.3 kmh 29.55 in1000.7 mb - 0.00 in0.0 mm 0.00 in0.0 mm
10:30 AM 83.2°F28.4°C 41.5°F5.3°C 23% 18.2 mph SW29.3 kmh SW 32.0 mph51.5 kmh 29.55 in1000.7 mb - 0.00 in0.0 mm 0.00 in0.0 mm
10:00 AM 80.1°F26.7°C 43.1°F6.2°C 27% 9.0 mph S14.5 kmh S 11.0 mph17.7 kmh 29.56 in1001.0 mb - 0.00 in0.0 mm 0.00 in0.0 mm
09:30 AM 78.4°F25.8°C 43.5°F6.4°C 29% 10.0 mph S16.1 kmh S 14.0 mph22.5 kmh 29.56 in1001.0 mb - 0.00 in0.0 mm 0.00 in0.0 mm
09:00 AM 74.9°F23.8°C 42.2°F5.7°C 31% 7.2 mph S11.6 kmh S 10.0 mph16.1 kmh 29.55 in1000.7 mb - 0.00 in0.0 mm 0.00 in0.0 mm
08:30 AM 72.3°F22.4°C 42.3°F5.7°C 34% 7.0 mph S11.3 kmh S 10.0 mph16.1 kmh 29.56 in1001.0 mb - 0.00 in0.0 mm 0.00 in0.0 mm
08:00 AM 70.4°F21.3°C 42.1°F5.6°C 36% 6.0 mph SE9.7 kmh SE 7.0 mph11.3 kmh 29.57 in1001.4 mb - 0.00 in0.0 mm 0.00 in0.0 mm
07:30 AM 68.9°F20.5°C 41.5°F5.3°C 37% 5.1 mph SE8.2 kmh SE 6.0 mph9.7 kmh 29.58 in1001.7 mb - 0.00 in0.0 mm 0.00 in0.0 mm
07:00 AM 67.1°F19.5°C 42.6°F5.9°C 41% 1.3 mph NE2.1 kmh NE 3.0 mph4.8 kmh 29.59 in1002.0 mb - 0.00 in0.0 mm 0.00 in0.0 mm
06:30 AM 69.7°F20.9°C 40.8°F4.9°C 35% 2.2 mph SW3.5 kmh SW 3.0 mph4.8 kmh 29.57 in1001.4 mb - 0.00 in0.0 mm 0.00 in0.0 mm
06:00 AM 69.1°F20.6°C 41.0°F5.0°C 36% 5.9 mph S9.5 kmh S 7.0 mph11.3 kmh 29.56 in1001.0 mb - 0.00 in0.0 mm 0.00 in0.0 mm
05:30 AM 69.2°F20.7°C 41.1°F5.1°C 36% 6.4 mph S10.3 kmh S 9.0 mph14.5 kmh 29.55 in1000.7 mb - 0.00 in0.0 mm 0.00 in0.0 mm
05:00 AM 71.2°F21.8°C 42.1°F5.6°C 35% 5.0 mph SSE8.0 kmh SSE 7.0 mph11.3 kmh 29.55 in1000.7 mb - 0.00 in0.0 mm 0.00 in0.0 mm
04:30 AM 70.0°F21.1°C 43.2°F6.2°C 38% 12.0 mph SSE19.3 kmh SSE 14.0 mph22.5 kmh 29.57 in1001.4 mb - 0.00 in0.0 mm 0.00 in0.0 mm
04:00 AM 68.2°F20.1°C 43.6°F6.4°C 41% 11.4 mph SE18.3 kmh SE 14.0 mph22.5 kmh 29.58 in1001.7 mb - 0.00 in0.0 mm 0.00 in0.0 mm
03:30 AM 67.1°F19.5°C 43.9°F6.6°C 43% 12.0 mph SE19.3 kmh SE 15.0 mph24.1 kmh 29.59 in1002.0 mb - 0.00 in0.0 mm 0.00 in0.0 mm
03:00 AM 66.2°F19.0°C 44.2°F6.8°C 45% 9.3 mph SE15.0 kmh SE 10.0 mph16.1 kmh 29.60 in1002.4 mb - 0.00 in0.0 mm 0.00 in0.0 mm
02:30 AM 66.6°F19.2°C 44.6°F7.0°C 45% 10.1 mph SE16.3 kmh SE 12.0 mph19.3 kmh 29.60 in1002.4 mb - 0.00 in0.0 mm 0.00 in0.0 mm
02:00 AM 68.0°F20.0°C 44.6°F7.0°C 43% 13.6 mph SE21.9 kmh SE 15.0 mph24.1 kmh 29.61 in1002.7 mb - 0.00 in0.0 mm 0.00 in0.0 mm
01:30 AM 67.4°F19.7°C 44.1°F6.7°C 43% 6.2 mph SE10.0 kmh SE 8.0 mph12.9 kmh 29.65 in1004.1 mb - 0.00 in0.0 mm 0.00 in0.0 mm
01:00 AM 68.6°F20.3°C 43.9°F6.6°C 41% 11.9 mph ESE19.2 kmh ESE 14.0 mph22.5 kmh 29.66 in1004.4 mb - 0.00 in0.0 mm 0.00 in0.0 mm
12:30 AM 67.1°F19.5°C 43.8°F6.6°C 43% 8.3 mph E13.4 kmh E 9.0 mph14.5 kmh 29.70 in1005.8 mb - 0.00 in0.0 mm 0.00 in0.0 mm
12:00 AM 68.8°F20.4°C 44.1°F6.7°C 41% 8.5 mph E13.7 kmh E 11.0 mph17.7 kmh 29.69 in1005.4 mb - 0.00 in0.0 mm 0.00 in0.0 mm